sensor_id;sensor_type;location;lat;lon;timestamp;temperature;humidity
73547;SHT30;61807;48.384;-4.386;2022-12-07T00:02:04;7.00;69.47
73547;SHT30;61807;48.384;-4.386;2022-12-07T00:04:29;6.97;69.49
73547;SHT30;61807;48.384;-4.386;2022-12-07T00:06:55;6.94;69.50
73547;SHT30;61807;48.384;-4.386;2022-12-07T00:09:20;6.91;69.40
73547;SHT30;61807;48.384;-4.386;2022-12-07T00:11:49;6.90;69.34
73547;SHT30;61807;48.384;-4.386;2022-12-07T00:14:16;6.85;69.40
73547;SHT30;61807;48.384;-4.386;2022-12-07T00:16:43;6.80;69.51
73547;SHT30;61807;48.384;-4.386;2022-12-07T00:19:11;6.79;69.51
73547;SHT30;61807;48.384;-4.386;2022-12-07T00:21:36;6.74;69.53
73547;SHT30;61807;48.384;-4.386;2022-12-07T00:24:04;6.74;69.60
73547;SHT30;61807;48.384;-4.386;2022-12-07T00:26:35;6.76;69.72
73547;SHT30;61807;48.384;-4.386;2022-12-07T00:29:04;6.79;69.86
73547;SHT30;61807;48.384;-4.386;2022-12-07T00:31:35;6.83;69.92
73547;SHT30;61807;48.384;-4.386;2022-12-07T00:34:04;6.88;70.07
73547;SHT30;61807;48.384;-4.386;2022-12-07T00:36:30;6.90;70.21
73547;SHT30;61807;48.384;-4.386;2022-12-07T00:38:58;6.97;70.26
73547;SHT30;61807;48.384;-4.386;2022-12-07T00:41:25;7.02;70.20
73547;SHT30;61807;48.384;-4.386;2022-12-07T00:43:51;7.09;70.21
73547;SHT30;61807;48.384;-4.386;2022-12-07T00:46:18;7.12;70.12
73547;SHT30;61807;48.384;-4.386;2022-12-07T00:48:43;7.14;70.05
73547;SHT30;61807;48.384;-4.386;2022-12-07T00:51:11;7.15;70.10
73547;SHT30;61807;48.384;-4.386;2022-12-07T00:53:37;7.18;70.10
73547;SHT30;61807;48.384;-4.386;2022-12-07T00:56:12;7.15;70.16
73547;SHT30;61807;48.384;-4.386;2022-12-07T00:58:37;7.21;70.21
73547;SHT30;61807;48.384;-4.386;2022-12-07T01:01:04;7.23;70.12
73547;SHT30;61807;48.384;-4.386;2022-12-07T01:03:31;7.22;70.18
73547;SHT30;61807;48.384;-4.386;2022-12-07T01:05:57;7.28;70.11
73547;SHT30;61807;48.384;-4.386;2022-12-07T01:08:24;7.32;70.08
73547;SHT30;61807;48.384;-4.386;2022-12-07T01:10:57;7.29;70.07
73547;SHT30;61807;48.384;-4.386;2022-12-07T01:13:23;7.29;70.08
73547;SHT30;61807;48.384;-4.386;2022-12-07T01:15:48;7.32;70.08
73547;SHT30;61807;48.384;-4.386;2022-12-07T01:18:14;7.33;70.06
73547;SHT30;61807;48.384;-4.386;2022-12-07T01:20:39;7.33;70.10
73547;SHT30;61807;48.384;-4.386;2022-12-07T01:23:05;7.35;70.09
73547;SHT30;61807;48.384;-4.386;2022-12-07T01:25:31;7.35;70.05
73547;SHT30;61807;48.384;-4.386;2022-12-07T01:27:56;7.32;69.99
73547;SHT30;61807;48.384;-4.386;2022-12-07T01:30:22;7.33;70.05
73547;SHT30;61807;48.384;-4.386;2022-12-07T01:32:47;7.32;70.15
73547;SHT30;61807;48.384;-4.386;2022-12-07T01:35:13;7.33;70.07
73547;SHT30;61807;48.384;-4.386;2022-12-07T01:37:38;7.35;70.14
73547;SHT30;61807;48.384;-4.386;2022-12-07T01:40:05;7.36;70.07
73547;SHT30;61807;48.384;-4.386;2022-12-07T01:42:32;7.39;69.97
73547;SHT30;61807;48.384;-4.386;2022-12-07T01:47:57;7.40;69.84
73547;SHT30;61807;48.384;-4.386;2022-12-07T01:50:26;7.36;69.79
73547;SHT30;61807;48.384;-4.386;2022-12-07T01:52:54;7.35;69.87
73547;SHT30;61807;48.384;-4.386;2022-12-07T01:55:21;7.31;69.80
73547;SHT30;61807;48.384;-4.386;2022-12-07T01:57:49;7.25;69.70
73547;SHT30;61807;48.384;-4.386;2022-12-07T02:00:17;7.21;69.70
73547;SHT30;61807;48.384;-4.386;2022-12-07T02:02:46;7.18;69.69
73547;SHT30;61807;48.384;-4.386;2022-12-07T02:05:13;7.15;69.72
73547;SHT30;61807;48.384;-4.386;2022-12-07T02:07:39;7.12;69.63
73547;SHT30;61807;48.384;-4.386;2022-12-07T02:10:18;7.11;69.69
73547;SHT30;61807;48.384;-4.386;2022-12-07T02:12:47;7.11;69.52
73547;SHT30;61807;48.384;-4.386;2022-12-07T02:15:14;7.08;69.41
73547;SHT30;61807;48.384;-4.386;2022-12-07T02:17:53;7.08;69.45
73547;SHT30;61807;48.384;-4.386;2022-12-07T02:20:29;7.07;69.45
73547;SHT30;61807;48.384;-4.386;2022-12-07T02:28:34;6.87;69.18
73547;SHT30;61807;48.384;-4.386;2022-12-07T02:31:12;6.87;69.16
73547;SHT30;61807;48.384;-4.386;2022-12-07T02:33:45;6.87;69.28
73547;SHT30;61807;48.384;-4.386;2022-12-07T02:36:17;6.88;69.32
73547;SHT30;61807;48.384;-4.386;2022-12-07T02:38:56;6.94;69.27
73547;SHT30;61807;48.384;-4.386;2022-12-07T02:41:40;6.97;68.96
73547;SHT30;61807;48.384;-4.386;2022-12-07T02:44:11;7.01;68.98
73547;SHT30;61807;48.384;-4.386;2022-12-07T02:46:44;7.07;68.97
73547;SHT30;61807;48.384;-4.386;2022-12-07T02:49:12;7.11;69.02
73547;SHT30;61807;48.384;-4.386;2022-12-07T02:51:46;7.22;69.02
73547;SHT30;61807;48.384;-4.386;2022-12-07T02:54:19;7.26;68.97
73547;SHT30;61807;48.384;-4.386;2022-12-07T02:56:48;7.36;68.88
73547;SHT30;61807;48.384;-4.386;2022-12-07T03:04:37;7.67;68.62
73547;SHT30;61807;48.384;-4.386;2022-12-07T03:07:18;7.71;68.44
73547;SHT30;61807;48.384;-4.386;2022-12-07T03:15:16;8.01;68.12
73547;SHT30;61807;48.384;-4.386;2022-12-07T03:17:45;8.12;68.09
73547;SHT30;61807;48.384;-4.386;2022-12-07T03:20:13;8.18;67.83
73547;SHT30;61807;48.384;-4.386;2022-12-07T03:22:42;8.25;67.93
73547;SHT30;61807;48.384;-4.386;2022-12-07T03:25:11;8.35;67.91
73547;SHT30;61807;48.384;-4.386;2022-12-07T03:27:51;8.44;67.75
73547;SHT30;61807;48.384;-4.386;2022-12-07T03:30:24;8.50;67.61
73547;SHT30;61807;48.384;-4.386;2022-12-07T03:35:25;8.62;67.56
73547;SHT30;61807;48.384;-4.386;2022-12-07T03:37:55;8.73;67.55
73547;SHT30;61807;48.384;-4.386;2022-12-07T03:42:48;8.80;67.43
73547;SHT30;61807;48.384;-4.386;2022-12-07T03:45:15;8.86;67.28
73547;SHT30;61807;48.384;-4.386;2022-12-07T03:47:56;8.91;67.17
73547;SHT30;61807;48.384;-4.386;2022-12-07T03:50:49;8.94;67.11
73547;SHT30;61807;48.384;-4.386;2022-12-07T03:53:22;9.00;66.94
73547;SHT30;61807;48.384;-4.386;2022-12-07T03:55:49;9.04;66.89
73547;SHT30;61807;48.384;-4.386;2022-12-07T03:58:19;9.08;66.79
73547;SHT30;61807;48.384;-4.386;2022-12-07T04:00:45;9.10;66.72
73547;SHT30;61807;48.384;-4.386;2022-12-07T04:03:11;9.14;66.73
73547;SHT30;61807;48.384;-4.386;2022-12-07T04:05:37;9.16;66.76
73547;SHT30;61807;48.384;-4.386;2022-12-07T04:08:03;9.16;66.64
73547;SHT30;61807;48.384;-4.386;2022-12-07T04:10:28;9.21;66.58
73547;SHT30;61807;48.384;-4.386;2022-12-07T04:12:54;9.27;66.66
73547;SHT30;61807;48.384;-4.386;2022-12-07T04:15:19;9.30;66.41
73547;SHT30;61807;48.384;-4.386;2022-12-07T04:17:45;9.34;66.25
73547;SHT30;61807;48.384;-4.386;2022-12-07T04:20:11;9.35;66.14
73547;SHT30;61807;48.384;-4.386;2022-12-07T04:22:36;9.34;66.11
73547;SHT30;61807;48.384;-4.386;2022-12-07T04:25:02;9.34;65.99
73547;SHT30;61807;48.384;-4.386;2022-12-07T04:27:27;9.38;65.87
73547;SHT30;61807;48.384;-4.386;2022-12-07T04:29:53;9.38;65.86
73547;SHT30;61807;48.384;-4.386;2022-12-07T04:32:18;9.39;66.01
73547;SHT30;61807;48.384;-4.386;2022-12-07T04:34:44;9.44;66.07
73547;SHT30;61807;48.384;-4.386;2022-12-07T04:37:09;9.47;65.90
73547;SHT30;61807;48.384;-4.386;2022-12-07T04:39:35;9.48;65.62
73547;SHT30;61807;48.384;-4.386;2022-12-07T04:42:01;9.51;65.47
73547;SHT30;61807;48.384;-4.386;2022-12-07T04:44:27;9.51;65.61
73547;SHT30;61807;48.384;-4.386;2022-12-07T04:46:54;9.51;65.67
73547;SHT30;61807;48.384;-4.386;2022-12-07T04:49:20;9.51;65.73
73547;SHT30;61807;48.384;-4.386;2022-12-07T04:51:46;9.48;65.52
73547;SHT30;61807;48.384;-4.386;2022-12-07T04:54:14;9.47;65.45
73547;SHT30;61807;48.384;-4.386;2022-12-07T04:56:40;9.47;65.54
73547;SHT30;61807;48.384;-4.386;2022-12-07T04:59:05;9.48;65.61
73547;SHT30;61807;48.384;-4.386;2022-12-07T05:01:31;9.48;65.66
73547;SHT30;61807;48.384;-4.386;2022-12-07T05:03:57;9.47;65.66
73547;SHT30;61807;48.384;-4.386;2022-12-07T05:06:23;9.47;65.63
73547;SHT30;61807;48.384;-4.386;2022-12-07T05:08:48;9.45;65.54
73547;SHT30;61807;48.384;-4.386;2022-12-07T05:11:15;9.44;65.51
73547;SHT30;61807;48.384;-4.386;2022-12-07T05:13:59;9.37;65.49
73547;SHT30;61807;48.384;-4.386;2022-12-07T05:16:24;9.31;65.42
73547;SHT30;61807;48.384;-4.386;2022-12-07T05:18:49;9.30;65.40
73547;SHT30;61807;48.384;-4.386;2022-12-07T05:21:15;9.24;65.36
73547;SHT30;61807;48.384;-4.386;2022-12-07T05:23:40;9.20;65.42
73547;SHT30;61807;48.384;-4.386;2022-12-07T05:26:06;9.17;65.55
73547;SHT30;61807;48.384;-4.386;2022-12-07T05:28:31;9.11;65.62
73547;SHT30;61807;48.384;-4.386;2022-12-07T05:30:56;9.06;65.57
73547;SHT30;61807;48.384;-4.386;2022-12-07T05:33:22;8.94;65.58
73547;SHT30;61807;48.384;-4.386;2022-12-07T05:35:47;8.84;65.65
73547;SHT30;61807;48.384;-4.386;2022-12-07T05:38:12;8.77;65.62
73547;SHT30;61807;48.384;-4.386;2022-12-07T05:40:38;8.66;65.66
73547;SHT30;61807;48.384;-4.386;2022-12-07T05:43:03;8.59;65.70
73547;SHT30;61807;48.384;-4.386;2022-12-07T05:45:29;8.50;65.71
73547;SHT30;61807;48.384;-4.386;2022-12-07T05:47:54;8.41;65.63
73547;SHT30;61807;48.384;-4.386;2022-12-07T05:50:20;8.25;65.71
73547;SHT30;61807;48.384;-4.386;2022-12-07T05:52:45;8.20;65.85
73547;SHT30;61807;48.384;-4.386;2022-12-07T05:55:10;8.14;65.94
73547;SHT30;61807;48.384;-4.386;2022-12-07T05:57:36;8.01;65.96
73547;SHT30;61807;48.384;-4.386;2022-12-07T06:00:03;7.94;66.01
73547;SHT30;61807;48.384;-4.386;2022-12-07T06:02:28;7.87;66.04
73547;SHT30;61807;48.384;-4.386;2022-12-07T06:04:54;7.83;66.13
73547;SHT30;61807;48.384;-4.386;2022-12-07T06:07:19;7.79;66.19
73547;SHT30;61807;48.384;-4.386;2022-12-07T06:09:45;7.76;66.36
73547;SHT30;61807;48.384;-4.386;2022-12-07T06:12:11;7.71;66.47
73547;SHT30;61807;48.384;-4.386;2022-12-07T06:14:55;7.69;66.57
73547;SHT30;61807;48.384;-4.386;2022-12-07T06:17:21;7.66;66.71
73547;SHT30;61807;48.384;-4.386;2022-12-07T06:19:46;7.69;66.86
73547;SHT30;61807;48.384;-4.386;2022-12-07T06:22:12;7.70;66.78
73547;SHT30;61807;48.384;-4.386;2022-12-07T06:24:38;7.71;66.59
73547;SHT30;61807;48.384;-4.386;2022-12-07T06:27:04;7.73;66.42
73547;SHT30;61807;48.384;-4.386;2022-12-07T06:29:30;7.76;66.34
73547;SHT30;61807;48.384;-4.386;2022-12-07T06:31:55;7.77;66.18
73547;SHT30;61807;48.384;-4.386;2022-12-07T06:34:23;7.81;66.13
73547;SHT30;61807;48.384;-4.386;2022-12-07T06:36:49;7.81;66.17
73547;SHT30;61807;48.384;-4.386;2022-12-07T06:39:22;7.84;66.28
73547;SHT30;61807;48.384;-4.386;2022-12-07T06:41:48;7.87;66.41
73547;SHT30;61807;48.384;-4.386;2022-12-07T06:44:13;7.89;66.71
73547;SHT30;61807;48.384;-4.386;2022-12-07T06:46:39;7.91;66.65
73547;SHT30;61807;48.384;-4.386;2022-12-07T06:49:05;7.93;66.74
73547;SHT30;61807;48.384;-4.386;2022-12-07T06:51:31;7.98;66.60
73547;SHT30;61807;48.384;-4.386;2022-12-07T06:53:57;8.00;66.74
73547;SHT30;61807;48.384;-4.386;2022-12-07T06:56:23;8.07;66.81
73547;SHT30;61807;48.384;-4.386;2022-12-07T06:58:49;8.14;66.76
73547;SHT30;61807;48.384;-4.386;2022-12-07T07:01:17;8.20;66.67
73547;SHT30;61807;48.384;-4.386;2022-12-07T07:03:43;8.20;66.65
73547;SHT30;61807;48.384;-4.386;2022-12-07T07:06:09;8.20;66.78
73547;SHT30;61807;48.384;-4.386;2022-12-07T07:08:38;8.25;66.83
73547;SHT30;61807;48.384;-4.386;2022-12-07T07:11:04;8.32;66.77
73547;SHT30;61807;48.384;-4.386;2022-12-07T07:13:30;8.39;66.77
73547;SHT30;61807;48.384;-4.386;2022-12-07T07:15:55;8.49;66.62
73547;SHT30;61807;48.384;-4.386;2022-12-07T07:18:21;8.56;66.38
73547;SHT30;61807;48.384;-4.386;2022-12-07T07:20:47;8.63;66.28
73547;SHT30;61807;48.384;-4.386;2022-12-07T07:23:12;8.75;65.99
73547;SHT30;61807;48.384;-4.386;2022-12-07T07:25:38;8.75;65.51
73547;SHT30;61807;48.384;-4.386;2022-12-07T07:28:04;8.76;65.72
73547;SHT30;61807;48.384;-4.386;2022-12-07T07:30:29;8.83;65.92
73547;SHT30;61807;48.384;-4.386;2022-12-07T07:33:02;8.91;65.96
73547;SHT30;61807;48.384;-4.386;2022-12-07T07:35:29;8.99;65.82
73547;SHT30;61807;48.384;-4.386;2022-12-07T07:37:55;9.04;65.66
73547;SHT30;61807;48.384;-4.386;2022-12-07T07:40:20;9.10;65.79
73547;SHT30;61807;48.384;-4.386;2022-12-07T07:42:53;9.17;65.60
73547;SHT30;61807;48.384;-4.386;2022-12-07T07:45:20;9.26;65.42
73547;SHT30;61807;48.384;-4.386;2022-12-07T07:47:46;9.31;65.47
73547;SHT30;61807;48.384;-4.386;2022-12-07T07:50:12;9.34;65.46
73547;SHT30;61807;48.384;-4.386;2022-12-07T07:52:38;9.37;65.46
73547;SHT30;61807;48.384;-4.386;2022-12-07T07:55:04;9.41;65.36
73547;SHT30;61807;48.384;-4.386;2022-12-07T07:57:30;9.47;65.20
73547;SHT30;61807;48.384;-4.386;2022-12-07T07:59:56;9.47;65.15
73547;SHT30;61807;48.384;-4.386;2022-12-07T08:02:21;9.52;65.05
73547;SHT30;61807;48.384;-4.386;2022-12-07T08:04:47;9.47;65.05
73547;SHT30;61807;48.384;-4.386;2022-12-07T08:07:14;9.51;64.85
73547;SHT30;61807;48.384;-4.386;2022-12-07T08:09:40;9.54;64.90
73547;SHT30;61807;48.384;-4.386;2022-12-07T08:12:06;9.54;65.02
73547;SHT30;61807;48.384;-4.386;2022-12-07T08:14:32;9.61;64.87
73547;SHT30;61807;48.384;-4.386;2022-12-07T08:16:57;9.65;65.02
73547;SHT30;61807;48.384;-4.386;2022-12-07T08:19:23;9.71;64.86
73547;SHT30;61807;48.384;-4.386;2022-12-07T08:21:49;9.72;64.68
73547;SHT30;61807;48.384;-4.386;2022-12-07T08:24:14;9.75;64.54
73547;SHT30;61807;48.384;-4.386;2022-12-07T08:26:40;9.74;64.50
73547;SHT30;61807;48.384;-4.386;2022-12-07T08:29:05;9.75;64.54
73547;SHT30;61807;48.384;-4.386;2022-12-07T08:31:31;9.79;64.50
73547;SHT30;61807;48.384;-4.386;2022-12-07T08:33:56;9.79;64.24
73547;SHT30;61807;48.384;-4.386;2022-12-07T08:36:22;9.88;64.06
73547;SHT30;61807;48.384;-4.386;2022-12-07T08:38:48;9.95;63.92
73547;SHT30;61807;48.384;-4.386;2022-12-07T08:41:14;9.99;63.80
73547;SHT30;61807;48.384;-4.386;2022-12-07T08:43:39;10.07;63.50
73547;SHT30;61807;48.384;-4.386;2022-12-07T08:46:21;10.14;63.34
73547;SHT30;61807;48.384;-4.386;2022-12-07T08:48:58;10.17;63.42
73547;SHT30;61807;48.384;-4.386;2022-12-07T08:51:27;10.18;63.45
73547;SHT30;61807;48.384;-4.386;2022-12-07T08:53:53;10.27;63.35
73547;SHT30;61807;48.384;-4.386;2022-12-07T08:56:20;10.27;63.53
73547;SHT30;61807;48.384;-4.386;2022-12-07T08:58:46;10.27;63.83
73547;SHT30;61807;48.384;-4.386;2022-12-07T09:01:12;10.30;63.67
73547;SHT30;61807;48.384;-4.386;2022-12-07T09:03:37;10.29;63.70
73547;SHT30;61807;48.384;-4.386;2022-12-07T09:06:03;10.33;63.64
73547;SHT30;61807;48.384;-4.386;2022-12-07T09:08:33;10.36;63.77
73547;SHT30;61807;48.384;-4.386;2022-12-07T09:11:00;10.34;63.72
73547;SHT30;61807;48.384;-4.386;2022-12-07T09:13:26;10.37;64.00
73547;SHT30;61807;48.384;-4.386;2022-12-07T09:15:51;10.37;64.10
73547;SHT30;61807;48.384;-4.386;2022-12-07T09:18:16;10.34;64.40
73547;SHT30;61807;48.384;-4.386;2022-12-07T09:20:42;10.41;64.36
73547;SHT30;61807;48.384;-4.386;2022-12-07T09:23:07;10.46;64.08
73547;SHT30;61807;48.384;-4.386;2022-12-07T09:25:34;10.47;64.05
73547;SHT30;61807;48.384;-4.386;2022-12-07T09:28:00;10.53;64.07
73547;SHT30;61807;48.384;-4.386;2022-12-07T09:30:26;10.55;63.78
73547;SHT30;61807;48.384;-4.386;2022-12-07T09:32:55;10.60;63.61
73547;SHT30;61807;48.384;-4.386;2022-12-07T09:35:22;10.67;63.54
73547;SHT30;61807;48.384;-4.386;2022-12-07T09:37:47;10.71;63.30
73547;SHT30;61807;48.384;-4.386;2022-12-07T09:40:13;10.72;63.24
73547;SHT30;61807;48.384;-4.386;2022-12-07T09:42:42;10.74;63.14
73547;SHT30;61807;48.384;-4.386;2022-12-07T09:45:34;10.79;62.85
73547;SHT30;61807;48.384;-4.386;2022-12-07T09:48:00;10.82;62.68
73547;SHT30;61807;48.384;-4.386;2022-12-07T09:50:28;10.82;62.80
73547;SHT30;61807;48.384;-4.386;2022-12-07T09:53:02;10.82;62.71
73547;SHT30;61807;48.384;-4.386;2022-12-07T09:55:29;10.72;63.02
73547;SHT30;61807;48.384;-4.386;2022-12-07T09:57:57;10.69;63.42
73547;SHT30;61807;48.384;-4.386;2022-12-07T10:00:23;10.71;63.44
73547;SHT30;61807;48.384;-4.386;2022-12-07T10:02:54;10.75;63.25
73547;SHT30;61807;48.384;-4.386;2022-12-07T10:05:47;10.84;63.15
73547;SHT30;61807;48.384;-4.386;2022-12-07T10:08:14;10.82;62.69
73547;SHT30;61807;48.384;-4.386;2022-12-07T10:10:43;10.82;63.05
73547;SHT30;61807;48.384;-4.386;2022-12-07T10:13:11;10.78;63.12
73547;SHT30;61807;48.384;-4.386;2022-12-07T10:18:39;10.69;62.86
73547;SHT30;61807;48.384;-4.386;2022-12-07T10:23:36;10.69;62.83
73547;SHT30;61807;48.384;-4.386;2022-12-07T10:28:47;10.64;63.19
73547;SHT30;61807;48.384;-4.386;2022-12-07T10:31:19;10.58;63.09
73547;SHT30;61807;48.384;-4.386;2022-12-07T10:33:58;10.54;63.05
73547;SHT30;61807;48.384;-4.386;2022-12-07T10:36:27;10.54;63.19
73547;SHT30;61807;48.384;-4.386;2022-12-07T10:44:22;10.54;63.18
73547;SHT30;61807;48.384;-4.386;2022-12-07T10:52:09;10.61;63.32
73547;SHT30;61807;48.384;-4.386;2022-12-07T10:57:22;10.71;63.54
73547;SHT30;61807;48.384;-4.386;2022-12-07T11:00:18;10.79;63.30
73547;SHT30;61807;48.384;-4.386;2022-12-07T11:11:59;11.12;62.75
73547;SHT30;61807;48.384;-4.386;2022-12-07T11:14:16;11.04;62.72
73547;SHT30;61807;48.384;-4.386;2022-12-07T11:16:56;10.95;62.92
73547;SHT30;61807;48.384;-4.386;2022-12-07T11:19:52;10.96;63.05
73547;SHT30;61807;48.384;-4.386;2022-12-07T11:31:14;10.91;63.19
73547;SHT30;61807;48.384;-4.386;2022-12-07T11:36:41;10.89;63.43
73547;SHT30;61807;48.384;-4.386;2022-12-07T11:39:36;10.89;63.21
73547;SHT30;61807;48.384;-4.386;2022-12-07T11:42:18;10.86;63.28
73547;SHT30;61807;48.384;-4.386;2022-12-07T11:45:00;10.84;63.14
73547;SHT30;61807;48.384;-4.386;2022-12-07T11:47:41;10.82;63.44
73547;SHT30;61807;48.384;-4.386;2022-12-07T11:53:01;10.76;62.95
73547;SHT30;61807;48.384;-4.386;2022-12-07T11:55:41;10.76;63.22
73547;SHT30;61807;48.384;-4.386;2022-12-07T11:58:48;10.79;63.24
73547;SHT30;61807;48.384;-4.386;2022-12-07T12:03:48;10.82;63.20
73547;SHT30;61807;48.384;-4.386;2022-12-07T12:06:14;10.76;62.95
73547;SHT30;61807;48.384;-4.386;2022-12-07T12:08:43;10.75;62.85
73547;SHT30;61807;48.384;-4.386;2022-12-07T12:21:55;10.79;62.91
73547;SHT30;61807;48.384;-4.386;2022-12-07T12:24:30;10.78;62.90
73547;SHT30;61807;48.384;-4.386;2022-12-07T12:27:15;10.74;62.93
73547;SHT30;61807;48.384;-4.386;2022-12-07T12:29:41;10.82;62.68
73547;SHT30;61807;48.384;-4.386;2022-12-07T12:32:17;10.92;62.70
73547;SHT30;61807;48.384;-4.386;2022-12-07T12:42:48;10.95;62.62
73547;SHT30;61807;48.384;-4.386;2022-12-07T12:45:27;10.99;62.73
73547;SHT30;61807;48.384;-4.386;2022-12-07T12:50:35;11.11;62.53
73547;SHT30;61807;48.384;-4.386;2022-12-07T12:53:19;11.12;62.49
73547;SHT30;61807;48.384;-4.386;2022-12-07T12:58:33;11.16;62.64
73547;SHT30;61807;48.384;-4.386;2022-12-07T13:02:00;11.19;62.68
73547;SHT30;61807;48.384;-4.386;2022-12-07T13:04:30;11.25;62.73
73547;SHT30;61807;48.384;-4.386;2022-12-07T13:06:59;11.20;62.62
73547;SHT30;61807;48.384;-4.386;2022-12-07T13:09:30;11.19;62.48
73547;SHT30;61807;48.384;-4.386;2022-12-07T13:12:11;11.15;62.25
73547;SHT30;61807;48.384;-4.386;2022-12-07T13:17:55;11.18;62.63
73547;SHT30;61807;48.384;-4.386;2022-12-07T13:25:27;11.11;62.86
73547;SHT30;61807;48.384;-4.386;2022-12-07T13:28:07;11.06;63.05
73547;SHT30;61807;48.384;-4.386;2022-12-07T13:30:43;11.05;62.96
73547;SHT30;61807;48.384;-4.386;2022-12-07T13:33:17;11.04;62.60
73547;SHT30;61807;48.384;-4.386;2022-12-07T13:35:43;10.95;62.23
73547;SHT30;61807;48.384;-4.386;2022-12-07T13:38:30;10.85;62.72
73547;SHT30;61807;48.384;-4.386;2022-12-07T13:41:17;10.84;63.21
73547;SHT30;61807;48.384;-4.386;2022-12-07T13:44:10;10.89;63.18
73547;SHT30;61807;48.384;-4.386;2022-12-07T13:47:31;10.89;63.00
73547;SHT30;61807;48.384;-4.386;2022-12-07T13:49:31;10.86;63.13
73547;SHT30;61807;48.384;-4.386;2022-12-07T13:57:31;10.84;63.16
73547;SHT30;61807;48.384;-4.386;2022-12-07T14:00:00;10.84;63.75
73547;SHT30;61807;48.384;-4.386;2022-12-07T14:02:27;10.84;63.62
73547;SHT30;61807;48.384;-4.386;2022-12-07T14:05:08;10.88;63.88
73547;SHT30;61807;48.384;-4.386;2022-12-07T14:07:34;10.91;63.62
73547;SHT30;61807;48.384;-4.386;2022-12-07T14:10:05;10.95;63.53
73547;SHT30;61807;48.384;-4.386;2022-12-07T14:12:34;10.98;63.47
73547;SHT30;61807;48.384;-4.386;2022-12-07T14:15:01;11.01;63.60
73547;SHT30;61807;48.384;-4.386;2022-12-07T14:17:27;11.01;63.74
73547;SHT30;61807;48.384;-4.386;2022-12-07T14:20:03;11.01;64.03
73547;SHT30;61807;48.384;-4.386;2022-12-07T14:22:31;11.02;64.08
73547;SHT30;61807;48.384;-4.386;2022-12-07T14:25:01;10.98;63.84
73547;SHT30;61807;48.384;-4.386;2022-12-07T14:27:32;11.02;64.07
73547;SHT30;61807;48.384;-4.386;2022-12-07T14:30:00;11.04;64.05
73547;SHT30;61807;48.384;-4.386;2022-12-07T14:32:28;11.05;64.15
73547;SHT30;61807;48.384;-4.386;2022-12-07T14:35:13;11.02;64.04
73547;SHT30;61807;48.384;-4.386;2022-12-07T14:37:40;10.98;64.40
73547;SHT30;61807;48.384;-4.386;2022-12-07T14:40:07;10.95;64.46
73547;SHT30;61807;48.384;-4.386;2022-12-07T14:42:33;10.89;64.61
73547;SHT30;61807;48.384;-4.386;2022-12-07T14:44:59;10.85;64.58
73547;SHT30;61807;48.384;-4.386;2022-12-07T14:47:26;10.82;64.98
73547;SHT30;61807;48.384;-4.386;2022-12-07T14:49:52;10.88;64.91
73547;SHT30;61807;48.384;-4.386;2022-12-07T14:52:20;10.88;64.74
73547;SHT30;61807;48.384;-4.386;2022-12-07T14:54:46;10.95;64.66
73547;SHT30;61807;48.384;-4.386;2022-12-07T14:57:12;10.96;64.54
73547;SHT30;61807;48.384;-4.386;2022-12-07T14:59:37;11.02;64.51
73547;SHT30;61807;48.384;-4.386;2022-12-07T15:02:03;10.99;64.60
73547;SHT30;61807;48.384;-4.386;2022-12-07T15:04:29;11.01;64.71
73547;SHT30;61807;48.384;-4.386;2022-12-07T15:06:59;11.09;64.61
73547;SHT30;61807;48.384;-4.386;2022-12-07T15:09:24;11.15;64.56
73547;SHT30;61807;48.384;-4.386;2022-12-07T15:11:50;11.18;64.48
73547;SHT30;61807;48.384;-4.386;2022-12-07T15:14:15;11.23;64.45
73547;SHT30;61807;48.384;-4.386;2022-12-07T15:16:42;11.25;64.24
73547;SHT30;61807;48.384;-4.386;2022-12-07T15:19:16;11.29;64.34
73547;SHT30;61807;48.384;-4.386;2022-12-07T15:21:42;11.32;64.41
73547;SHT30;61807;48.384;-4.386;2022-12-07T15:24:10;11.30;64.36
73547;SHT30;61807;48.384;-4.386;2022-12-07T15:26:36;11.30;64.47
73547;SHT30;61807;48.384;-4.386;2022-12-07T15:29:01;11.34;64.47
73547;SHT30;61807;48.384;-4.386;2022-12-07T15:31:27;11.37;64.68
73547;SHT30;61807;48.384;-4.386;2022-12-07T15:33:52;11.40;64.80
73547;SHT30;61807;48.384;-4.386;2022-12-07T15:36:20;11.42;64.62
73547;SHT30;61807;48.384;-4.386;2022-12-07T15:38:46;11.44;64.47
73547;SHT30;61807;48.384;-4.386;2022-12-07T15:41:12;11.49;64.54
73547;SHT30;61807;48.384;-4.386;2022-12-07T15:43:37;11.43;64.46
73547;SHT30;61807;48.384;-4.386;2022-12-07T15:46:21;11.40;64.44
73547;SHT30;61807;48.384;-4.386;2022-12-07T15:48:46;11.40;64.43
73547;SHT30;61807;48.384;-4.386;2022-12-07T15:51:12;11.34;64.23
73547;SHT30;61807;48.384;-4.386;2022-12-07T15:53:37;11.36;64.36
73547;SHT30;61807;48.384;-4.386;2022-12-07T15:56:07;11.36;64.22
73547;SHT30;61807;48.384;-4.386;2022-12-07T15:58:33;11.26;64.50
73547;SHT30;61807;48.384;-4.386;2022-12-07T16:00:58;11.27;64.57
73547;SHT30;61807;48.384;-4.386;2022-12-07T16:03:23;11.27;64.46
73547;SHT30;61807;48.384;-4.386;2022-12-07T16:05:50;11.26;64.57
73547;SHT30;61807;48.384;-4.386;2022-12-07T16:08:15;11.26;64.64
73547;SHT30;61807;48.384;-4.386;2022-12-07T16:10:41;11.26;64.47
73547;SHT30;61807;48.384;-4.386;2022-12-07T16:13:10;11.22;64.67
73547;SHT30;61807;48.384;-4.386;2022-12-07T16:15:42;11.22;64.68
73547;SHT30;61807;48.384;-4.386;2022-12-07T16:18:08;11.19;64.50
73547;SHT30;61807;48.384;-4.386;2022-12-07T16:20:34;11.19;64.43
73547;SHT30;61807;48.384;-4.386;2022-12-07T16:22:59;11.18;64.41
73547;SHT30;61807;48.384;-4.386;2022-12-07T16:25:24;11.13;64.32
73547;SHT30;61807;48.384;-4.386;2022-12-07T16:27:51;11.05;64.26
73547;SHT30;61807;48.384;-4.386;2022-12-07T16:30:17;10.96;64.36
73547;SHT30;61807;48.384;-4.386;2022-12-07T16:32:42;10.86;64.40
73547;SHT30;61807;48.384;-4.386;2022-12-07T16:35:08;10.79;64.45
73547;SHT30;61807;48.384;-4.386;2022-12-07T16:37:34;10.69;64.47
73547;SHT30;61807;48.384;-4.386;2022-12-07T16:39:59;10.57;64.47
73547;SHT30;61807;48.384;-4.386;2022-12-07T16:42:25;10.46;64.62
73547;SHT30;61807;48.384;-4.386;2022-12-07T16:44:51;10.30;64.68
73547;SHT30;61807;48.384;-4.386;2022-12-07T16:47:17;10.18;64.88
73547;SHT30;61807;48.384;-4.386;2022-12-07T16:49:42;10.09;65.04
73547;SHT30;61807;48.384;-4.386;2022-12-07T16:52:08;9.95;65.13
73547;SHT30;61807;48.384;-4.386;2022-12-07T16:54:33;9.86;65.31
73547;SHT30;61807;48.384;-4.386;2022-12-07T16:56:59;9.76;65.43
73547;SHT30;61807;48.384;-4.386;2022-12-07T16:59:24;9.62;65.57
73547;SHT30;61807;48.384;-4.386;2022-12-07T17:01:50;9.52;65.77
73547;SHT30;61807;48.384;-4.386;2022-12-07T17:04:15;9.45;65.98
73547;SHT30;61807;48.384;-4.386;2022-12-07T17:06:41;9.37;66.22
73547;SHT30;61807;48.384;-4.386;2022-12-07T17:09:06;9.37;66.36
73547;SHT30;61807;48.384;-4.386;2022-12-07T17:11:35;9.34;66.44
73547;SHT30;61807;48.384;-4.386;2022-12-07T17:14:00;9.31;66.58
73547;SHT30;61807;48.384;-4.386;2022-12-07T17:16:44;9.30;66.58
73547;SHT30;61807;48.384;-4.386;2022-12-07T17:19:15;9.31;66.75
73547;SHT30;61807;48.384;-4.386;2022-12-07T17:21:42;9.27;66.81
73547;SHT30;61807;48.384;-4.386;2022-12-07T17:24:10;9.31;66.97
73547;SHT30;61807;48.384;-4.386;2022-12-07T17:26:36;9.31;67.14